メインページ
METAR-TAF:

METAR-TAF

空港 :

Al-`Ula, サウジアラビア

緯度: 26-29-00N, 経度: 038-07-01E, 海抜: 624m

現時点の気象観測

当レポートは1時間11分前の20:00(UTC)に作成
西/南西の風 10kt
気温 33°C
湿度 21%
気圧 1010 hPa
視程10km以上
1,500メートル以下は雲なし、積乱雲なし

METAR: OEAO 212000Z 24010KT CAVOK 33/08 Q1010

時間: 00:11 (21:11 UTC)

予報

当レポートは10時間11分前の11:00(UTC)に作成
予報は21日の 12時(UTC)から 22日の 18時(UTC)まで有効
西の風 6kt、最大16ktの突風を伴う
視程: 7000m

TAF: OEAO 211100Z 2112/2218 27006G16KT 7000 NSC

4,000以上の空港の気象観測と天気予報(METAR報とTAF報)

利用可能な観測所は地図上に黄色い丸と赤い丸で示す。

丸の上にカーソルを重ねると観測所名を参照できる。

次にクリックすると気象観測と天気予報を参照できる。

マップの切り替え:黒色「×」印の緑ボタンをクリックして拡大、「-」印の緑ボタンをクリックして縮小、緑色の三角印をクリックして隣りの地図に切り替え


METAR-TAF: